sensor_id;sensor_type;location;lat;lon;timestamp;pressure;altitude;pressure_sealevel;temperature;humidity
11515;BME280;5814;41.936;25.556;2022-07-29T00:01:08;112497.60;;;-145.99;100.00
11515;BME280;5814;41.936;25.556;2022-07-29T00:03:35;112497.60;;;-145.99;100.00
11515;BME280;5814;41.936;25.556;2022-07-29T00:06:02;112497.60;;;-145.99;100.00
11515;BME280;5814;41.936;25.556;2022-07-29T00:08:29;112497.60;;;-145.99;100.00
11515;BME280;5814;41.936;25.556;2022-07-29T00:10:57;112497.60;;;-145.99;100.00
11515;BME280;5814;41.936;25.556;2022-07-29T00:13:24;112497.60;;;-145.99;100.00
11515;BME280;5814;41.936;25.556;2022-07-29T00:15:51;112497.60;;;-145.99;100.00
11515;BME280;5814;41.936;25.556;2022-07-29T00:18:18;112497.60;;;-145.99;100.00
11515;BME280;5814;41.936;25.556;2022-07-29T00:20:45;112497.60;;;-145.99;100.00
11515;BME280;5814;41.936;25.556;2022-07-29T00:23:13;112497.60;;;-145.99;100.00
11515;BME280;5814;41.936;25.556;2022-07-29T00:25:40;112497.60;;;-145.99;100.00
11515;BME280;5814;41.936;25.556;2022-07-29T00:28:07;112497.60;;;-145.99;100.00
11515;BME280;5814;41.936;25.556;2022-07-29T00:30:34;112497.60;;;-145.99;100.00
11515;BME280;5814;41.936;25.556;2022-07-29T00:33:01;112497.60;;;-145.99;100.00
11515;BME280;5814;41.936;25.556;2022-07-29T00:35:28;99222.17;;;23.33;100.00
11515;BME280;5814;41.936;25.556;2022-07-29T00:38:01;112497.60;;;-145.99;100.00
11515;BME280;5814;41.936;25.556;2022-07-29T00:40:28;112497.60;;;-145.99;100.00
11515;BME280;5814;41.936;25.556;2022-07-29T00:42:56;112497.60;;;-145.99;100.00
11515;BME280;5814;41.936;25.556;2022-07-29T00:45:23;99218.95;;;23.34;100.00
11515;BME280;5814;41.936;25.556;2022-07-29T00:47:50;112497.60;;;-145.99;100.00
11515;BME280;5814;41.936;25.556;2022-07-29T00:50:17;99213.77;;;23.32;100.00
11515;BME280;5814;41.936;25.556;2022-07-29T00:52:44;99221.13;;;23.46;100.00
11515;BME280;5814;41.936;25.556;2022-07-29T00:55:13;112497.60;;;-145.99;100.00
11515;BME280;5814;41.936;25.556;2022-07-29T00:57:39;112497.60;;;-145.99;100.00
11515;BME280;5814;41.936;25.556;2022-07-29T01:00:07;112497.60;;;-145.99;100.00
11515;BME280;5814;41.936;25.556;2022-07-29T01:02:34;99200.63;;;23.30;100.00
11515;BME280;5814;41.936;25.556;2022-07-29T01:05:02;112497.60;;;-145.99;100.00
11515;BME280;5814;41.936;25.556;2022-07-29T01:07:28;112497.60;;;-145.99;100.00
11515;BME280;5814;41.936;25.556;2022-07-29T01:09:56;112497.60;;;-145.99;100.00
11515;BME280;5814;41.936;25.556;2022-07-29T01:12:25;112497.60;;;-145.99;100.00
11515;BME280;5814;41.936;25.556;2022-07-29T01:14:51;112497.60;;;-145.99;100.00
11515;BME280;5814;41.936;25.556;2022-07-29T01:17:24;112497.60;;;-145.99;100.00
11515;BME280;5814;41.936;25.556;2022-07-29T01:22:25;112497.60;;;-145.99;100.00
11515;BME280;5814;41.936;25.556;2022-07-29T01:27:51;112497.60;;;-145.99;100.00
11515;BME280;5814;41.936;25.556;2022-07-29T01:30:15;112497.60;;;-145.99;100.00
11515;BME280;5814;41.936;25.556;2022-07-29T01:32:42;112497.60;;;-145.99;100.00
11515;BME280;5814;41.936;25.556;2022-07-29T01:35:15;112497.60;;;-145.99;100.00
11515;BME280;5814;41.936;25.556;2022-07-29T01:37:41;112497.60;;;-145.99;100.00
11515;BME280;5814;41.936;25.556;2022-07-29T01:40:08;99212.83;;;22.92;100.00
11515;BME280;5814;41.936;25.556;2022-07-29T01:42:36;99206.53;;;22.88;100.00
11515;BME280;5814;41.936;25.556;2022-07-29T01:45:08;99204.78;;;22.82;100.00
11515;BME280;5814;41.936;25.556;2022-07-29T01:47:42;112497.60;;;-145.99;100.00
11515;BME280;5814;41.936;25.556;2022-07-29T01:50:11;112497.60;;;-145.99;100.00
11515;BME280;5814;41.936;25.556;2022-07-29T01:52:52;112497.60;;;-145.99;100.00
11515;BME280;5814;41.936;25.556;2022-07-29T01:55:16;112497.60;;;-145.99;100.00
11515;BME280;5814;41.936;25.556;2022-07-29T01:57:44;112497.60;;;-145.99;100.00
11515;BME280;5814;41.936;25.556;2022-07-29T02:00:12;112497.60;;;-145.99;100.00
11515;BME280;5814;41.936;25.556;2022-07-29T02:02:40;112497.60;;;-145.99;100.00
11515;BME280;5814;41.936;25.556;2022-07-29T02:05:07;112497.60;;;-145.99;100.00
11515;BME280;5814;41.936;25.556;2022-07-29T02:07:34;112497.60;;;-145.99;100.00
11515;BME280;5814;41.936;25.556;2022-07-29T02:10:01;112497.60;;;-145.99;100.00
11515;BME280;5814;41.936;25.556;2022-07-29T02:12:28;112497.60;;;-145.99;100.00
11515;BME280;5814;41.936;25.556;2022-07-29T02:14:55;112497.60;;;-145.99;100.00
11515;BME280;5814;41.936;25.556;2022-07-29T02:17:24;112497.60;;;-145.99;100.00
11515;BME280;5814;41.936;25.556;2022-07-29T02:19:51;112497.60;;;-145.99;100.00
11515;BME280;5814;41.936;25.556;2022-07-29T02:22:17;112497.60;;;-145.99;100.00
11515;BME280;5814;41.936;25.556;2022-07-29T02:24:45;112497.60;;;-145.99;100.00
11515;BME280;5814;41.936;25.556;2022-07-29T02:27:12;112497.60;;;-145.99;100.00
11515;BME280;5814;41.936;25.556;2022-07-29T02:29:39;112497.60;;;-145.99;100.00
11515;BME280;5814;41.936;25.556;2022-07-29T02:32:06;112497.60;;;-145.99;100.00
11515;BME280;5814;41.936;25.556;2022-07-29T02:34:33;112497.60;;;-145.99;100.00
11515;BME280;5814;41.936;25.556;2022-07-29T02:37:00;99169.34;;;22.23;100.00
11515;BME280;5814;41.936;25.556;2022-07-29T02:39:28;112497.60;;;-145.99;100.00
11515;BME280;5814;41.936;25.556;2022-07-29T02:41:57;112497.60;;;-145.99;100.00
11515;BME280;5814;41.936;25.556;2022-07-29T02:44:23;112497.60;;;-145.99;100.00
11515;BME280;5814;41.936;25.556;2022-07-29T02:46:50;112497.60;;;-145.99;100.00
11515;BME280;5814;41.936;25.556;2022-07-29T02:49:25;112497.60;;;-145.99;100.00
11515;BME280;5814;41.936;25.556;2022-07-29T02:51:54;112497.60;;;-145.99;100.00
11515;BME280;5814;41.936;25.556;2022-07-29T02:54:27;112497.60;;;-145.99;100.00
11515;BME280;5814;41.936;25.556;2022-07-29T02:56:53;112497.60;;;-145.99;100.00
11515;BME280;5814;41.936;25.556;2022-07-29T02:59:21;112497.60;;;-145.99;100.00
11515;BME280;5814;41.936;25.556;2022-07-29T03:01:47;112497.60;;;-145.99;100.00
11515;BME280;5814;41.936;25.556;2022-07-29T03:04:14;112497.60;;;-145.99;100.00
11515;BME280;5814;41.936;25.556;2022-07-29T03:06:41;112497.60;;;-145.99;100.00
11515;BME280;5814;41.936;25.556;2022-07-29T03:09:09;112497.60;;;-145.99;100.00
11515;BME280;5814;41.936;25.556;2022-07-29T03:11:36;112497.60;;;22.01;100.00
11515;BME280;5814;41.936;25.556;2022-07-29T03:14:03;112497.60;;;-145.99;100.00
11515;BME280;5814;41.936;25.556;2022-07-29T03:16:30;112497.60;;;-145.99;100.00
11515;BME280;5814;41.936;25.556;2022-07-29T03:18:57;112497.60;;;-145.99;100.00
11515;BME280;5814;41.936;25.556;2022-07-29T03:21:24;112497.60;;;-145.99;100.00
11515;BME280;5814;41.936;25.556;2022-07-29T03:23:52;112497.60;;;-145.99;100.00
11515;BME280;5814;41.936;25.556;2022-07-29T03:26:19;112497.60;;;-145.99;100.00
11515;BME280;5814;41.936;25.556;2022-07-29T03:28:46;112497.60;;;-145.99;100.00
11515;BME280;5814;41.936;25.556;2022-07-29T03:31:13;112497.60;;;-145.99;100.00
11515;BME280;5814;41.936;25.556;2022-07-29T03:33:40;112497.60;;;-145.99;100.00
11515;BME280;5814;41.936;25.556;2022-07-29T03:36:07;112497.60;;;-145.99;100.00
11515;BME280;5814;41.936;25.556;2022-07-29T03:38:35;112497.60;;;-145.99;100.00
11515;BME280;5814;41.936;25.556;2022-07-29T03:41:05;112497.60;;;-145.99;100.00
11515;BME280;5814;41.936;25.556;2022-07-29T03:43:32;112497.60;;;-145.99;100.00
11515;BME280;5814;41.936;25.556;2022-07-29T03:45:59;112497.60;;;-145.99;100.00
11515;BME280;5814;41.936;25.556;2022-07-29T03:48:26;112497.60;;;-145.99;100.00
11515;BME280;5814;41.936;25.556;2022-07-29T03:50:53;112497.60;;;-145.99;100.00
11515;BME280;5814;41.936;25.556;2022-07-29T03:53:20;112497.60;;;-145.99;100.00
11515;BME280;5814;41.936;25.556;2022-07-29T03:55:48;112497.60;;;-145.99;100.00
11515;BME280;5814;41.936;25.556;2022-07-29T03:58:15;99234.28;;;22.44;100.00
11515;BME280;5814;41.936;25.556;2022-07-29T04:00:42;112497.60;;;-145.99;100.00
11515;BME280;5814;41.936;25.556;2022-07-29T04:03:09;112497.60;;;-145.99;100.00
11515;BME280;5814;41.936;25.556;2022-07-29T04:05:36;112497.60;;;-145.99;100.00
11515;BME280;5814;41.936;25.556;2022-07-29T04:08:04;112497.60;;;-145.99;100.00
11515;BME280;5814;41.936;25.556;2022-07-29T04:10:31;112497.60;;;-145.99;100.00
11515;BME280;5814;41.936;25.556;2022-07-29T04:12:59;112497.60;;;-145.99;100.00
11515;BME280;5814;41.936;25.556;2022-07-29T04:15:26;99226.67;;;22.21;100.00
11515;BME280;5814;41.936;25.556;2022-07-29T04:17:53;99241.64;;;22.34;100.00
11515;BME280;5814;41.936;25.556;2022-07-29T04:20:20;112497.60;;;-145.99;100.00
11515;BME280;5814;41.936;25.556;2022-07-29T04:22:47;112497.60;;;-145.99;100.00
11515;BME280;5814;41.936;25.556;2022-07-29T04:25:14;99242.62;;;22.80;100.00
11515;BME280;5814;41.936;25.556;2022-07-29T04:27:42;99238.36;;;23.07;100.00
11515;BME280;5814;41.936;25.556;2022-07-29T04:30:09;99234.72;;;24.53;100.00
11515;BME280;5814;41.936;25.556;2022-07-29T04:32:36;99235.31;;;26.94;93.25
11515;BME280;5814;41.936;25.556;2022-07-29T04:35:03;99221.63;;;28.59;78.16
11515;BME280;5814;41.936;25.556;2022-07-29T04:37:31;99221.44;;;28.88;73.75
11515;BME280;5814;41.936;25.556;2022-07-29T04:39:58;99231.41;;;30.37;67.52
11515;BME280;5814;41.936;25.556;2022-07-29T04:42:25;99234.31;;;31.37;63.03
11515;BME280;5814;41.936;25.556;2022-07-29T04:44:52;99229.28;;;32.17;59.07
11515;BME280;5814;41.936;25.556;2022-07-29T04:47:19;99218.11;;;32.47;58.22
11515;BME280;5814;41.936;25.556;2022-07-29T04:49:46;99221.48;;;32.99;55.18
11515;BME280;5814;41.936;25.556;2022-07-29T04:52:14;99225.56;;;33.77;52.89
11515;BME280;5814;41.936;25.556;2022-07-29T04:54:41;112497.60;;;-145.99;100.00
11515;BME280;5814;41.936;25.556;2022-07-29T04:57:08;112497.60;;;-145.99;100.00
11515;BME280;5814;41.936;25.556;2022-07-29T04:59:35;112497.60;;;-145.99;100.00
11515;BME280;5814;41.936;25.556;2022-07-29T05:02:02;112497.60;;;-145.99;100.00
11515;BME280;5814;41.936;25.556;2022-07-29T05:04:30;99235.65;;;35.30;46.27
11515;BME280;5814;41.936;25.556;2022-07-29T05:06:57;112497.60;;;-145.99;100.00
11515;BME280;5814;41.936;25.556;2022-07-29T05:09:24;112497.60;;;-145.99;100.00
11515;BME280;5814;41.936;25.556;2022-07-29T05:11:51;112497.60;;;-145.99;100.00
11515;BME280;5814;41.936;25.556;2022-07-29T05:14:18;112497.60;;;-145.99;100.00
11515;BME280;5814;41.936;25.556;2022-07-29T05:16:45;112497.60;;;-145.99;100.00
11515;BME280;5814;41.936;25.556;2022-07-29T05:19:13;69597.73;;;30.80;57.68
11515;BME280;5814;41.936;25.556;2022-07-29T05:21:40;99251.81;;;30.72;60.68
11515;BME280;5814;41.936;25.556;2022-07-29T05:24:07;99258.12;;;29.62;64.67
11515;BME280;5814;41.936;25.556;2022-07-29T05:26:34;99255.85;;;29.45;65.98
11515;BME280;5814;41.936;25.556;2022-07-29T05:29:01;99267.47;;;28.53;67.42
11515;BME280;5814;41.936;25.556;2022-07-29T05:31:28;99262.66;;;28.11;69.27
11515;BME280;5814;41.936;25.556;2022-07-29T05:33:55;99268.44;;;27.97;69.66
11515;BME280;5814;41.936;25.556;2022-07-29T05:36:23;99272.16;;;27.68;70.61
11515;BME280;5814;41.936;25.556;2022-07-29T05:38:50;99274.18;;;27.56;71.30
11515;BME280;5814;41.936;25.556;2022-07-29T05:41:17;99271.68;;;27.64;71.41
11515;BME280;5814;41.936;25.556;2022-07-29T05:43:44;99275.98;;;27.84;70.87
11515;BME280;5814;41.936;25.556;2022-07-29T05:46:11;99279.17;;;27.97;70.46
11515;BME280;5814;41.936;25.556;2022-07-29T05:48:38;99281.97;;;27.77;70.12
11515;BME280;5814;41.936;25.556;2022-07-29T05:51:06;112497.60;;;-145.99;100.00
11515;BME280;5814;41.936;25.556;2022-07-29T05:53:33;99287.98;;;27.61;71.49
11515;BME280;5814;41.936;25.556;2022-07-29T05:56:02;99280.69;;;27.57;72.59
11515;BME280;5814;41.936;25.556;2022-07-29T05:58:27;99288.23;;;27.73;70.65
11515;BME280;5814;41.936;25.556;2022-07-29T06:00:54;99281.67;;;27.48;70.50
11515;BME280;5814;41.936;25.556;2022-07-29T06:03:22;99283.48;;;27.57;71.63
11515;BME280;5814;41.936;25.556;2022-07-29T06:05:49;99286.36;;;27.60;71.76
11515;BME280;5814;41.936;25.556;2022-07-29T06:08:16;99285.13;;;27.54;72.17
11515;BME280;5814;41.936;25.556;2022-07-29T06:10:43;99287.84;;;27.44;72.31
11515;BME280;5814;41.936;25.556;2022-07-29T06:13:11;99287.72;;;27.31;72.57
11515;BME280;5814;41.936;25.556;2022-07-29T06:15:38;99286.39;;;27.26;73.40
11515;BME280;5814;41.936;25.556;2022-07-29T06:18:05;99284.80;;;27.38;73.53
11515;BME280;5814;41.936;25.556;2022-07-29T06:20:32;99281.89;;;27.45;72.77
11515;BME280;5814;41.936;25.556;2022-07-29T06:22:59;99286.26;;;27.65;72.47
11515;BME280;5814;41.936;25.556;2022-07-29T06:25:27;99283.28;;;27.93;72.12
11515;BME280;5814;41.936;25.556;2022-07-29T06:27:56;99272.13;;;28.37;71.64
11515;BME280;5814;41.936;25.556;2022-07-29T06:30:23;99268.17;;;27.72;71.74
11515;BME280;5814;41.936;25.556;2022-07-29T06:32:50;99259.59;;;28.56;69.99
11515;BME280;5814;41.936;25.556;2022-07-29T06:35:18;99265.45;;;29.04;67.30
11515;BME280;5814;41.936;25.556;2022-07-29T06:37:45;99266.27;;;30.00;64.12
11515;BME280;5814;41.936;25.556;2022-07-29T06:40:12;99261.20;;;29.89;62.42
11515;BME280;5814;41.936;25.556;2022-07-29T06:42:45;99264.75;;;29.72;62.49
11515;BME280;5814;41.936;25.556;2022-07-29T06:45:12;112497.60;;;-145.99;100.00
11515;BME280;5814;41.936;25.556;2022-07-29T06:47:39;99262.94;;;29.51;63.16
11515;BME280;5814;41.936;25.556;2022-07-29T06:50:07;99261.02;;;29.39;63.22
11515;BME280;5814;41.936;25.556;2022-07-29T06:52:34;99249.87;;;29.30;62.70
11515;BME280;5814;41.936;25.556;2022-07-29T06:55:02;99254.78;;;29.51;62.45
11515;BME280;5814;41.936;25.556;2022-07-29T06:57:29;99256.51;;;29.70;61.42
11515;BME280;5814;41.936;25.556;2022-07-29T06:59:56;99264.11;;;29.82;59.25
11515;BME280;5814;41.936;25.556;2022-07-29T07:02:23;99262.58;;;29.50;58.52
11515;BME280;5814;41.936;25.556;2022-07-29T07:04:50;99261.05;;;29.73;59.33
11515;BME280;5814;41.936;25.556;2022-07-29T07:07:17;99259.06;;;29.79;58.69
11515;BME280;5814;41.936;25.556;2022-07-29T07:09:44;99261.50;;;29.51;56.32
11515;BME280;5814;41.936;25.556;2022-07-29T07:12:12;99259.47;;;29.62;57.72
11515;BME280;5814;41.936;25.556;2022-07-29T07:14:39;99245.72;;;29.52;57.33
11515;BME280;5814;41.936;25.556;2022-07-29T07:17:06;99266.01;;;29.47;57.10
11515;BME280;5814;41.936;25.556;2022-07-29T07:19:33;99259.06;;;29.79;55.95
11515;BME280;5814;41.936;25.556;2022-07-29T07:22:00;99242.41;;;30.01;56.37
11515;BME280;5814;41.936;25.556;2022-07-29T07:24:28;99246.25;;;29.64;56.48
11515;BME280;5814;41.936;25.556;2022-07-29T07:26:55;99238.27;;;30.02;54.75
11515;BME280;5814;41.936;25.556;2022-07-29T07:29:22;99248.59;;;30.69;53.62
11515;BME280;5814;41.936;25.556;2022-07-29T07:31:49;99250.70;;;30.20;52.10
11515;BME280;5814;41.936;25.556;2022-07-29T07:34:16;99252.73;;;29.32;54.21
11515;BME280;5814;41.936;25.556;2022-07-29T07:36:43;99253.04;;;28.85;56.21
11515;BME280;5814;41.936;25.556;2022-07-29T07:39:11;99246.11;;;29.35;56.31
11515;BME280;5814;41.936;25.556;2022-07-29T07:41:38;99246.01;;;29.75;54.30
11515;BME280;5814;41.936;25.556;2022-07-29T07:44:06;99238.52;;;29.61;54.75
11515;BME280;5814;41.936;25.556;2022-07-29T07:46:33;99233.44;;;29.54;54.41
11515;BME280;5814;41.936;25.556;2022-07-29T07:49:01;99232.47;;;29.93;53.73
11515;BME280;5814;41.936;25.556;2022-07-29T07:51:28;99230.70;;;29.93;53.17
11515;BME280;5814;41.936;25.556;2022-07-29T07:53:55;99232.49;;;30.27;51.91
11515;BME280;5814;41.936;25.556;2022-07-29T07:56:22;99222.72;;;29.75;53.89
11515;BME280;5814;41.936;25.556;2022-07-29T07:58:50;99228.95;;;30.30;52.14
11515;BME280;5814;41.936;25.556;2022-07-29T08:01:17;99233.42;;;30.35;52.58
11515;BME280;5814;41.936;25.556;2022-07-29T08:03:44;99227.71;;;30.83;51.60
11515;BME280;5814;41.936;25.556;2022-07-29T08:06:11;99232.77;;;30.61;50.76
11515;BME280;5814;41.936;25.556;2022-07-29T08:08:39;99251.34;;;30.27;52.28
11515;BME280;5814;41.936;25.556;2022-07-29T08:11:06;99237.38;;;30.14;52.26
11515;BME280;5814;41.936;25.556;2022-07-29T08:13:33;99234.28;;;30.44;51.63
11515;BME280;5814;41.936;25.556;2022-07-29T08:16:00;99238.98;;;30.08;52.75
11515;BME280;5814;41.936;25.556;2022-07-29T08:18:28;99225.38;;;30.18;52.87
11515;BME280;5814;41.936;25.556;2022-07-29T08:20:54;99237.45;;;29.80;54.60
11515;BME280;5814;41.936;25.556;2022-07-29T08:23:22;99229.64;;;29.52;54.96
11515;BME280;5814;41.936;25.556;2022-07-29T08:25:49;99232.56;;;30.01;54.38
11515;BME280;5814;41.936;25.556;2022-07-29T08:28:16;99230.52;;;29.95;54.80
11515;BME280;5814;41.936;25.556;2022-07-29T08:30:43;99224.48;;;30.26;54.20
11515;BME280;5814;41.936;25.556;2022-07-29T08:33:10;99216.34;;;30.39;53.09
11515;BME280;5814;41.936;25.556;2022-07-29T08:35:38;99192.70;;;30.42;52.37
11515;BME280;5814;41.936;25.556;2022-07-29T08:38:05;99217.39;;;30.87;52.13
11515;BME280;5814;41.936;25.556;2022-07-29T08:40:32;99211.80;;;30.64;52.72
11515;BME280;5814;41.936;25.556;2022-07-29T08:43:03;99215.70;;;30.58;52.87
11515;BME280;5814;41.936;25.556;2022-07-29T08:45:26;99210.45;;;30.64;53.00
11515;BME280;5814;41.936;25.556;2022-07-29T08:47:54;99203.21;;;30.98;52.52
11515;BME280;5814;41.936;25.556;2022-07-29T08:50:21;99196.97;;;31.37;50.98
11515;BME280;5814;41.936;25.556;2022-07-29T08:52:48;99200.67;;;31.36;50.25
11515;BME280;5814;41.936;25.556;2022-07-29T08:55:15;99194.16;;;31.18;50.80
11515;BME280;5814;41.936;25.556;2022-07-29T08:57:42;99198.41;;;31.60;50.22
11515;BME280;5814;41.936;25.556;2022-07-29T09:00:10;99197.94;;;31.57;49.19
11515;BME280;5814;41.936;25.556;2022-07-29T09:02:39;99193.48;;;30.84;50.97
11515;BME280;5814;41.936;25.556;2022-07-29T09:05:07;99197.44;;;31.17;50.77
11515;BME280;5814;41.936;25.556;2022-07-29T09:07:34;99194.58;;;31.51;50.22
11515;BME280;5814;41.936;25.556;2022-07-29T09:10:02;99195.41;;;31.15;49.91
11515;BME280;5814;41.936;25.556;2022-07-29T09:12:29;99179.47;;;31.57;49.28
11515;BME280;5814;41.936;25.556;2022-07-29T09:14:56;99185.55;;;32.06;48.32
11515;BME280;5814;41.936;25.556;2022-07-29T09:17:48;99177.34;;;31.60;48.78
11515;BME280;5814;41.936;25.556;2022-07-29T09:20:16;99189.91;;;31.99;47.85
11515;BME280;5814;41.936;25.556;2022-07-29T09:22:43;99186.28;;;31.41;48.73
11515;BME280;5814;41.936;25.556;2022-07-29T09:25:11;99196.47;;;30.65;50.06
11515;BME280;5814;41.936;25.556;2022-07-29T09:27:37;99194.95;;;30.83;50.39
11515;BME280;5814;41.936;25.556;2022-07-29T09:30:06;99196.98;;;30.93;50.86
11515;BME280;5814;41.936;25.556;2022-07-29T09:32:32;99182.08;;;31.30;49.81
11515;BME280;5814;41.936;25.556;2022-07-29T09:37:38;99179.75;;;31.82;48.43
11515;BME280;5814;41.936;25.556;2022-07-29T09:40:12;99173.30;;;31.56;48.58
11515;BME280;5814;41.936;25.556;2022-07-29T09:42:39;99171.22;;;31.54;48.49
11515;BME280;5814;41.936;25.556;2022-07-29T09:45:06;99172.26;;;31.79;47.50
11515;BME280;5814;41.936;25.556;2022-07-29T09:47:44;99158.77;;;32.58;45.66
11515;BME280;5814;41.936;25.556;2022-07-29T09:50:10;99151.23;;;32.15;46.34
11515;BME280;5814;41.936;25.556;2022-07-29T09:52:45;99167.73;;;32.31;46.49
11515;BME280;5814;41.936;25.556;2022-07-29T09:55:12;99165.19;;;32.22;46.20
11515;BME280;5814;41.936;25.556;2022-07-29T09:57:39;99160.02;;;31.54;47.24
11515;BME280;5814;41.936;25.556;2022-07-29T10:00:12;99159.42;;;31.71;48.01
11515;BME280;5814;41.936;25.556;2022-07-29T10:02:39;99150.55;;;32.40;46.89
11515;BME280;5814;41.936;25.556;2022-07-29T10:05:15;99154.28;;;32.50;45.66
11515;BME280;5814;41.936;25.556;2022-07-29T10:07:43;99153.38;;;32.54;45.54
11515;BME280;5814;41.936;25.556;2022-07-29T10:10:10;99157.33;;;32.36;44.93
11515;BME280;5814;41.936;25.556;2022-07-29T10:12:48;99159.08;;;32.01;44.52
11515;BME280;5814;41.936;25.556;2022-07-29T10:15:15;99155.75;;;32.41;42.92
11515;BME280;5814;41.936;25.556;2022-07-29T10:17:42;99149.70;;;32.51;43.45
11515;BME280;5814;41.936;25.556;2022-07-29T10:20:10;99145.27;;;32.73;43.17
11515;BME280;5814;41.936;25.556;2022-07-29T10:22:37;99145.73;;;32.95;43.24
11515;BME280;5814;41.936;25.556;2022-07-29T10:25:05;99145.38;;;33.21;42.58
11515;BME280;5814;41.936;25.556;2022-07-29T10:27:34;99136.67;;;32.73;43.57
11515;BME280;5814;41.936;25.556;2022-07-29T10:30:00;99135.74;;;32.81;43.75
11515;BME280;5814;41.936;25.556;2022-07-29T10:32:51;99132.36;;;32.22;43.45
11515;BME280;5814;41.936;25.556;2022-07-29T10:35:27;99124.40;;;32.25;43.58
11515;BME280;5814;41.936;25.556;2022-07-29T10:40:38;99125.02;;;32.54;43.94
11515;BME280;5814;41.936;25.556;2022-07-29T10:43:16;99128.75;;;32.87;43.31
11515;BME280;5814;41.936;25.556;2022-07-29T10:45:42;99130.13;;;32.75;43.74
11515;BME280;5814;41.936;25.556;2022-07-29T10:48:11;99118.38;;;32.68;43.42
11515;BME280;5814;41.936;25.556;2022-07-29T10:53:17;99112.54;;;33.49;41.66
11515;BME280;5814;41.936;25.556;2022-07-29T10:55:45;99104.30;;;33.29;41.73
11515;BME280;5814;41.936;25.556;2022-07-29T10:58:17;99109.90;;;33.38;42.26
11515;BME280;5814;41.936;25.556;2022-07-29T11:00:44;99112.31;;;33.00;42.66
11515;BME280;5814;41.936;25.556;2022-07-29T11:03:41;99108.12;;;32.63;44.00
11515;BME280;5814;41.936;25.556;2022-07-29T11:05:58;99114.83;;;32.60;44.32
11515;BME280;5814;41.936;25.556;2022-07-29T11:08:25;99104.23;;;33.03;44.21
11515;BME280;5814;41.936;25.556;2022-07-29T11:11:30;99093.05;;;33.13;43.57
11515;BME280;5814;41.936;25.556;2022-07-29T11:15:59;99094.55;;;33.31;42.72
11515;BME280;5814;41.936;25.556;2022-07-29T11:18:27;99089.27;;;33.33;41.63
11515;BME280;5814;41.936;25.556;2022-07-29T11:20:54;99085.55;;;33.20;41.31
11515;BME280;5814;41.936;25.556;2022-07-29T11:23:25;99090.70;;;33.07;40.76
11515;BME280;5814;41.936;25.556;2022-07-29T11:28:27;99085.59;;;33.15;41.37
11515;BME280;5814;41.936;25.556;2022-07-29T11:30:54;99074.23;;;33.38;41.05
11515;BME280;5814;41.936;25.556;2022-07-29T11:33:34;99081.67;;;33.44;41.10
11515;BME280;5814;41.936;25.556;2022-07-29T11:36:15;99082.18;;;33.69;41.19
11515;BME280;5814;41.936;25.556;2022-07-29T11:38:42;99072.09;;;33.67;41.12
11515;BME280;5814;41.936;25.556;2022-07-29T11:41:23;99053.03;;;33.67;40.83
11515;BME280;5814;41.936;25.556;2022-07-29T11:43:55;99063.58;;;33.91;41.11
11515;BME280;5814;41.936;25.556;2022-07-29T11:49:00;99050.41;;;33.99;41.22
11515;BME280;5814;41.936;25.556;2022-07-29T11:51:28;99060.78;;;33.37;41.72
11515;BME280;5814;41.936;25.556;2022-07-29T11:53:55;99065.69;;;32.98;42.56
11515;BME280;5814;41.936;25.556;2022-07-29T11:56:22;99043.86;;;33.21;42.91
11515;BME280;5814;41.936;25.556;2022-07-29T11:58:50;99055.25;;;33.82;41.34
11515;BME280;5814;41.936;25.556;2022-07-29T12:01:17;99046.30;;;33.53;41.25
11515;BME280;5814;41.936;25.556;2022-07-29T12:03:44;99034.64;;;33.34;41.52
11515;BME280;5814;41.936;25.556;2022-07-29T12:06:12;99037.52;;;33.76;41.50
11515;BME280;5814;41.936;25.556;2022-07-29T12:08:40;99043.30;;;33.37;41.86
11515;BME280;5814;41.936;25.556;2022-07-29T12:11:14;99042.14;;;33.17;42.12
11515;BME280;5814;41.936;25.556;2022-07-29T12:13:38;99042.42;;;32.78;42.66
11515;BME280;5814;41.936;25.556;2022-07-29T12:16:01;99033.75;;;32.82;42.22
11515;BME280;5814;41.936;25.556;2022-07-29T12:18:28;99035.45;;;33.01;41.55
11515;BME280;5814;41.936;25.556;2022-07-29T12:20:58;99025.81;;;33.36;41.78
11515;BME280;5814;41.936;25.556;2022-07-29T12:23:25;99019.45;;;33.83;41.23
11515;BME280;5814;41.936;25.556;2022-07-29T12:25:52;99031.77;;;33.39;42.08
11515;BME280;5814;41.936;25.556;2022-07-29T12:28:22;99018.53;;;33.36;42.10
11515;BME280;5814;41.936;25.556;2022-07-29T12:30:49;99013.62;;;33.97;41.02
11515;BME280;5814;41.936;25.556;2022-07-29T12:33:20;99001.31;;;33.95;40.80
11515;BME280;5814;41.936;25.556;2022-07-29T12:35:47;99007.08;;;33.99;40.13
11515;BME280;5814;41.936;25.556;2022-07-29T12:38:13;99009.55;;;33.72;40.84
11515;BME280;5814;41.936;25.556;2022-07-29T12:40:40;99011.72;;;34.05;40.43
11515;BME280;5814;41.936;25.556;2022-07-29T12:43:11;98995.69;;;34.63;39.71
11515;BME280;5814;41.936;25.556;2022-07-29T12:45:39;98983.65;;;34.76;39.26
11515;BME280;5814;41.936;25.556;2022-07-29T12:48:05;98980.41;;;34.97;38.66
11515;BME280;5814;41.936;25.556;2022-07-29T12:50:33;98978.52;;;35.22;38.30
11515;BME280;5814;41.936;25.556;2022-07-29T12:53:08;98977.72;;;35.28;38.30
11515;BME280;5814;41.936;25.556;2022-07-29T12:55:42;98987.94;;;34.78;38.22
11515;BME280;5814;41.936;25.556;2022-07-29T12:58:08;98981.67;;;34.25;38.43
11515;BME280;5814;41.936;25.556;2022-07-29T13:00:35;98980.26;;;34.15;39.27
11515;BME280;5814;41.936;25.556;2022-07-29T13:03:02;98975.23;;;34.47;38.81
11515;BME280;5814;41.936;25.556;2022-07-29T13:05:39;98980.56;;;33.91;37.74
11515;BME280;5814;41.936;25.556;2022-07-29T13:08:11;98973.07;;;34.15;37.64
11515;BME280;5814;41.936;25.556;2022-07-29T13:10:38;98968.39;;;34.65;36.73